Data for 10/14/2007

Time Sea-Level Adjusted Pressure Absolute Pressure Temperature Relative Humidity Dew Point   
(mb) (inHg) (mb) (inHg) (C) (F) (%) (C) (F)
00:05 1019 30.09 848 25.04 5.9 42.6 73 1.5 34.7
00:10 1019 30.09 848 25.04 5.9 42.7 73 1.5 34.8
00:15 1019 30.09 848 25.04 6 42.8 72 1.5 34.6
00:20 1019 30.09 848 25.04 6.2 43.2 72 1.6 34.8
00:25 1019 30.09 848 25.04 6.1 43 73 1.6 34.9
00:30 1019 30.09 848 25.04 6 42.9 72 1.4 34.5
00:35 1019 30.09 848 25.04 6 42.9 72 1.3 34.3
00:40 1019 30.09 848 25.04 6 42.8 73 1.5 34.6
00:45 1019 30.09 848 25.04 5.8 42.4 73 1.4 34.5
00:50 1019 30.09 848 25.04 5.7 42.3 73 1.2 34.2
00:55 1019 30.09 848 25.04 5.7 42.3 72 1.1 34.1
01:00 1019 30.09 848 25.04 5.7 42.3 72 1 33.8
01:05 1019 30.09 848 25.04 5.7 42.3 71 0.9 33.7
01:10 1019 30.09 848 25.04 5.7 42.3 71 0.8 33.4
01:15 1019 30.09 848 25.04 5.8 42.5 71 1 33.9
01:20 1019 30.09 848 25.04 5.7 42.3 72 1.1 33.9
01:25 1019 30.09 848 25.04 5.5 41.9 73 1.1 34
01:30 1019 30.09 848 25.04 5.4 41.7 73 1 33.7
01:35 1019 30.09 848 25.04 5.3 41.5 73 0.9 33.6
01:40 1019 30.09 848 25.04 5.2 41.4 73 0.7 33.3
01:45 1019 30.09 848 25.04 5.2 41.3 72 0.6 33
01:50 1019 30.09 848 25.04 5.2 41.4 72 0.6 33
01:55 1019 30.09 848 25.04 5.3 41.5 71 0.5 32.9
02:00 1019 30.09 848 25.04 5.3 41.6 71 0.6 33
02:05 1019 30.09 848 25.04 5.3 41.5 71 0.5 32.9
02:10 1019 30.09 848 25.04 5.5 41.9 69 0.3 32.6
02:15 1019 30.09 848 25.04 6 42.8 68 0.5 32.9
02:20 1019 30.09 848 25.04 6 42.9 68 0.6 33
02:25 1019 30.09 849 25.07 5.9 42.5 69 0.7 33.2
02:30 1019 30.09 849 25.07 5.5 41.9 70 0.5 33
02:35 1019 30.09 849 25.07 5.2 41.3 72 0.5 33
02:40 1019 30.09 849 25.07 4.8 40.6 74 0.6 33.1
02:45 1019 30.09 849 25.07 4.6 40.3 75 0.5 32.9
02:50 1019 30.09 849 25.07 4.7 40.4 74 0.4 32.8
02:55 1019 30.09 849 25.07 4.4 39.9 75 0.3 32.6
03:00 1019 30.09 849 25.07 4.3 39.7 75 0.2 32.4
03:05 1019 30.09 849 25.07 4.2 39.5 75 0.2 32.4
03:10 1019 30.09 849 25.07 4.2 39.6 75 0.2 32.4
03:15 1019 30.09 849 25.07 4.3 39.8 75 0.2 32.4
03:20 1019 30.09 849 25.07 4.5 40.1 73 0.1 32.2
03:25 1019 30.09 849 25.07 4.6 40.3 74 0.3 32.5
03:30 1019 30.09 849 25.07 4.4 39.9 75 0.3 32.5
03:35 1019 30.09 849 25.07 4.3 39.7 75 0.2 32.4
03:40 1019 30.09 849 25.07 4.1 39.4 76 0.3 32.5
03:45 1019 30.09 849 25.07 3.9 39.1 76 0.1 32.2
03:50 1019 30.09 849 25.07 3.9 39 76 0 32.1
03:55 1019 30.09 849 25.07 3.8 38.8 77 0.1 32.2
04:00 1019 30.09 849 25.07 3.7 38.7 76 -0.1 31.8
04:05 1019 30.09 849 25.07 4.2 39.5 76 0.3 32.5
04:10 1019 30.09 849 25.07 4.3 39.7 74 -0 31.9
04:15 1020 30.12 849 25.07 4.6 40.3 72 0.1 32.1
04:20 1020 30.12 849 25.07 4.6 40.3 73 0.1 32.2
04:25 1020 30.12 849 25.07 4.6 40.2 73 0.2 32.4
04:30 1020 30.12 849 25.07 4.3 39.8 75 0.3 32.5
04:35 1020 30.12 849 25.07 4 39.2 75 0 32
04:40 1020 30.12 849 25.07 3.9 39 75 -0.1 31.9
04:45 1020 30.12 849 25.07 4.1 39.3 74 -0.1 31.9
04:50 1020 30.12 849 25.07 4.4 39.9 73 -0 32
04:55 1019 30.09 849 25.07 4.6 40.3 72 0.1 32.1
05:00 1019 30.09 849 25.07 4.7 40.5 72 0.1 32.2
05:05 1019 30.09 849 25.07 4 39.2 76 0.1 32.2
05:10 1019 30.09 849 25.07 3.6 38.5 76 -0.3 31.5
05:15 1019 30.09 849 25.07 4.2 39.5 73 -0.3 31.5
05:20 1019 30.09 849 25.07 4.3 39.8 73 -0 31.9
05:25 1019 30.09 849 25.07 4.2 39.6 74 0 32
05:30 1020 30.12 849 25.07 4 39.2 75 -0 32
05:35 1019 30.09 849 25.07 3.9 39 76 -0 31.9
05:40 1019 30.09 849 25.07 3.8 38.9 76 0 32
05:45 1019 30.09 849 25.07 3.5 38.3 77 -0.1 31.8
05:50 1019 30.09 849 25.07 3.5 38.2 77 -0.3 31.5
05:55 1019 30.09 849 25.07 3.5 38.3 77 -0.1 31.8
06:00 1019 30.09 849 25.07 3.3 37.9 78 -0.2 31.6
06:05 1020 30.12 849 25.07 2.8 37.1 81 -0.2 31.7
06:10 1020 30.12 849 25.07 2.6 36.7 81 -0.3 31.4
06:15 1020 30.12 849 25.07 2.6 36.6 81 -0.3 31.4
06:20 1020 30.12 849 25.07 2.5 36.5 82 -0.2 31.6
06:25 1020 30.12 849 25.07 2.6 36.6 82 -0.3 31.5
06:30 1020 30.12 849 25.07 2.7 36.9 80 -0.3 31.5
06:35 1020 30.12 849 25.07 2.5 36.5 81 -0.4 31.3
06:40 1020 30.12 849 25.07 2.5 36.5 81 -0.5 31.1
06:45 1019 30.09 849 25.07 2.7 36.9 80 -0.4 31.3
06:50 1019 30.09 849 25.07 2.8 37.1 80 -0.3 31.4
06:55 1019 30.09 849 25.07 2.7 36.9 81 -0.3 31.5
07:00 1019 30.09 849 25.07 2.7 36.8 80 -0.4 31.3
07:05 1019 30.09 849 25.07 2.9 37.2 79 -0.3 31.4
07:10 1020 30.12 849 25.07 3.2 37.7 78 -0.3 31.4
07:15 1020 30.12 849 25.07 3.6 38.4 76 -0.3 31.5
07:20 1020 30.12 849 25.07 3.8 38.8 75 -0.2 31.6
07:25 1020 30.12 849 25.07 3.6 38.6 77 -0.1 31.9
07:30 1020 30.12 849 25.07 3.5 38.3 77 -0.1 31.7
07:35 1020 30.12 849 25.07 3.4 38.1 77 -0.2 31.6
07:40 1020 30.12 849 25.07 3.1 37.7 79 -0.1 31.8
07:45 1020 30.12 849 25.07 3.2 37.7 77 -0.5 31.1
07:50 1020 30.12 849 25.07 3.6 38.4 76 -0.4 31.4
07:55 1020 30.12 849 25.07 3.5 38.4 75 -0.5 31.2
08:00 1020 30.12 849 25.07 3.4 38.2 75 -0.6 30.8
08:05 1020 30.12 849 25.07 3.5 38.3 75 -0.6 31
08:10 1020 30.12 849 25.07 3.4 38.2 76 -0.4 31.3
08:15 1020 30.12 849 25.07 3.6 38.5 75 -0.5 31.1
08:20 1020 30.12 849 25.07 3.8 38.9 73 -0.6 31
08:25 1020 30.12 849 25.07 4 39.1 74 -0.3 31.5
08:30 1020 30.12 849 25.07 3.6 38.5 74 -0.6 30.9
08:35 1020 30.12 849 25.07 3.7 38.7 74 -0.5 31
08:40 1020 30.12 849 25.07 3.9 39 73 -0.6 31
08:45 1020 30.12 849 25.07 4.2 39.6 72 -0.4 31.2
08:50 1020 30.12 849 25.07 4.4 40 71 -0.4 31.3
08:55 1020 30.12 849 25.07 4.8 40.7 70 -0.2 31.6
09:00 1020 30.12 849 25.07 5.3 41.5 69 0 32
09:05 1020 30.12 849 25.07 5.6 42.1 67 0 32
09:10 1020 30.12 849 25.07 6 42.7 67 0.4 32.6
09:15 1020 30.12 850 25.1 6.6 43.8 64 0.3 32.6
09:20 1020 30.12 850 25.1 7.2 45 62 0.5 32.9
09:25 1020 30.12 850 25.1 7.6 45.6 62 0.8 33.4
09:30 1020 30.12 850 25.1 7.7 45.8 62 0.8 33.4
09:35 1020 30.12 850 25.1 7.8 46.1 62 1 33.8
09:40 1020 30.12 850 25.1 8.1 46.6 60 0.9 33.6
09:45 1020 30.12 850 25.1 8.5 47.2 59 0.9 33.6
09:50 1020 30.12 850 25.1 8.4 47.1 59 0.8 33.5
09:55 1020 30.12 850 25.1 8.6 47.5 57 0.7 33.2
10:00 1020 30.12 849 25.07 9 48.2 56 0.8 33.4
10:05 1020 30.12 849 25.07 9.4 48.8 55 0.8 33.4
10:10 1020 30.12 849 25.07 9.8 49.6 55 1.1 34
10:15 1020 30.12 849 25.07 9.9 49.7 55 1.2 34.2
10:20 1020 30.12 850 25.1 9.8 49.6 55 1.1 34
10:25 1020 30.12 850 25.1 9 48.2 59 1.3 34.4
10:30 1020 30.12 850 25.1 8.8 47.9 56 0.6 33.1
10:35 1020 30.12 850 25.1 9 48.1 57 1 33.8
10:40 1020 30.12 850 25.1 9.2 48.5 55 0.7 33.2
10:45 1020 30.12 850 25.1 9.7 49.5 55 1.1 33.9
10:50 1020 30.12 849 25.07 10.3 50.6 52 0.9 33.5
10:55 1020 30.12 849 25.07 10.2 50.4 53 1.2 34.2
11:00 1020 30.12 849 25.07 10.6 51 51 0.9 33.7
11:05 1020 30.12 849 25.07 11 51.7 51 1.2 34.1
11:10 1020 30.12 849 25.07 10.6 51 52 1.2 34.2
11:15 1020 30.12 849 25.07 10.4 50.8 52 1.2 34.1
11:20 1020 30.12 849 25.07 11 51.8 51 1.2 34.2
11:25 1020 30.12 849 25.07 11.4 52.6 50 1.3 34.4
11:30 1020 30.12 849 25.07 12 53.6 46 0.9 33.7
11:35 1020 30.12 849 25.07 11.5 52.7 50 1.4 34.5
11:40 1020 30.12 849 25.07 12.1 53.8 47 1.2 34.1
11:45 1020 30.12 849 25.07 12.9 55.1 45 1.4 34.5
11:50 1020 30.12 849 25.07 13.2 55.7 44 1.3 34.3
11:55 1020 30.12 849 25.07 12.9 55.3 45 1.4 34.5
12:00 1020 30.12 849 25.07 12.7 54.9 46 1.5 34.6
12:05 1020 30.12 849 25.07 12.7 54.8 44 0.7 33.2
12:10 1020 30.12 849 25.07 12.7 54.9 45 1.1 33.9
12:15 1020 30.12 849 25.07 12.8 55.1 46 1.6 34.9
12:20 1020 30.12 849 25.07 12.5 54.5 47 1.5 34.7
12:25 1020 30.12 849 25.07 12.9 55.3 45 1.4 34.5
12:30 1020 30.12 849 25.07 12.9 55.3 45 1.4 34.5
12:35 1020 30.12 849 25.07 12.6 54.8 45 1.2 34.2
12:40 1020 30.12 849 25.07 13.8 56.8 41 0.8 33.5
12:45 1019 30.09 849 25.07 14.4 58 42 1.7 35.1
12:50 1019 30.09 849 25.07 13.2 55.7 44 1.2 34.1
12:55 1019 30.09 849 25.07 13.3 56 45 1.6 34.9
13:00 1019 30.09 849 25.07 13.7 56.6 42 1.2 34.2
13:05 1019 30.09 849 25.07 14.5 58.2 41 1.4 34.5
13:10 1019 30.09 848 25.04 14.1 57.5 38 0.1 32.2
13:15 1019 30.09 848 25.04 14.9 58.8 41 1.8 35.2
13:20 1019 30.09 848 25.04 14.8 58.7 41 1.9 35.4
13:25 1019 30.09 848 25.04 15 59.1 38 0.8 33.4
13:30 1019 30.09 848 25.04 15.9 60.7 35 0.7 33.3
13:35 1019 30.09 848 25.04 16.1 61 34 0.5 32.9
13:40 1019 30.09 848 25.04 16.2 61.2 35 0.9 33.6
13:45 1019 30.09 848 25.04 15.8 60.4 37 1.2 34.2
13:50 1019 30.09 848 25.04 14.9 58.9 36 -0 32
13:55 1019 30.09 848 25.04 15.8 60.5 34 0.2 32.4
14:00 1019 30.09 848 25.04 15.7 60.2 36 0.7 33.2
14:05 1019 30.09 848 25.04 15.5 59.8 33 -0.5 31.2
14:10 1019 30.09 848 25.04 16.5 61.7 31 -0.5 31
14:15 1018 30.06 848 25.04 16.6 62 32 0.1 32.2
14:20 1018 30.06 848 25.04 16.7 62 32 -0.1 31.8
14:25 1018 30.06 848 25.04 16.4 61.6 33 0.3 32.5
14:30 1018 30.06 848 25.04 16.2 61.1 33 0 32.1
14:35 1018 30.06 847 25.01 16.4 61.4 32 -0.4 31.2
14:40 1018 30.06 847 25.01 16.8 62.3 30 -0.8 30.6
14:45 1018 30.06 847 25.01 17.6 63.7 31 0.3 32.5
14:50 1018 30.06 847 25.01 17.8 64.1 31 0.5 32.9
14:55 1018 30.06 847 25.01 17.8 64 31 0.4 32.7
15:00 1018 30.06 847 25.01 17.6 63.7 31 0.3 32.5
15:05 1018 30.06 847 25.01 16 60.7 31 -0.9 30.3
15:10 1018 30.06 847 25.01 16.7 62.1 29 -1.3 29.7
15:15 1018 30.06 847 25.01 17.7 63.9 28 -0.7 30.8
15:20 1018 30.06 847 25.01 18 64.3 28 -0.7 30.7
15:25 1018 30.06 847 25.01 17.9 64.1 27 -1.3 29.6
15:30 1018 30.06 847 25.01 17.9 64.2 26 -1.5 29.3
15:35 1018 30.06 847 25.01 18 64.4 26 -1.5 29.3
15:40 1018 30.06 847 25.01 17.8 64 27 -1.2 29.9
15:45 1018 30.06 847 25.01 17.1 62.7 28 -1.4 29.4
15:50 1018 30.06 847 25.01 17.5 63.5 26 -2 28.5
15:55 1018 30.06 847 25.01 18.1 64.6 28 -0.7 30.7
16:00 1018 30.06 847 25.01 17.7 63.8 27 -1.3 29.7
16:05 1018 30.06 847 25.01 17.1 62.7 27 -2 28.5
16:10 1018 30.06 847 25.01 18 64.4 25 -2 28.4
16:15 1018 30.06 847 25.01 18.2 64.7 24 -2.5 27.4
16:20 1018 30.06 847 25.01 17.8 64 26 -1.9 28.7
16:25 1018 30.06 847 25.01 17.3 63.1 26 -2.2 28.1
16:30 1018 30.06 847 25.01 18.2 64.7 26 -1.5 29.3
16:35 1018 30.06 847 25.01 18.1 64.5 26 -1.5 29.4
16:40 1018 30.06 847 25.01 18 64.5 26 -1.7 28.9
16:45 1018 30.06 847 25.01 17.9 64.3 25 -2.2 28.1
16:50 1018 30.06 847 25.01 17.7 63.8 26 -2 28.4
16:55 1018 30.06 847 25.01 17.9 64.2 26 -1.8 28.7
17:00 1018 30.06 847 25.01 17.8 64.1 25 -2.5 27.5
17:05 1018 30.06 847 25.01 17.7 63.9 26 -2.1 28.3
17:10 1018 30.06 847 25.01 17.8 64 25 -2.4 27.7
17:15 1018 30.06 847 25.01 18.2 64.8 25 -2.1 28.3
17:20 1018 30.06 847 25.01 18.2 64.8 25 -2.1 28.2
17:25 1018 30.06 847 25.01 17.3 63.2 25 -2.7 27.2
17:30 1018 30.06 847 25.01 16.7 62.1 25 -3.2 26.2
17:35 1018 30.06 847 25.01 17.2 63 25 -3.1 26.4
17:40 1018 30.06 847 25.01 17.6 63.7 23 -3.6 25.4
17:45 1017 30.03 847 25.01 17.4 63.2 23 -3.8 25.2
17:50 1017 30.03 847 25.01 16.9 62.4 24 -3.6 25.5
17:55 1017 30.03 847 25.01 17.3 63.2 24 -3.2 26.2
18:00 1017 30.03 847 25.01 17.5 63.4 24 -3.1 26.4
18:05 1017 30.03 847 25.01 17.3 63.2 25 -2.5 27.4
18:10 1017 30.03 847 25.01 17.2 63 26 -2.4 27.8
18:15 1017 30.03 847 25.01 17.2 62.9 26 -2.3 27.9
18:20 1017 30.03 847 25.01 17 62.6 27 -2.2 28.1
18:25 1017 30.03 847 25.01 16.7 62.1 28 -1.8 28.8
18:30 1017 30.03 847 25.01 16.4 61.5 28 -1.9 28.5
18:35 1017 30.03 847 25.01 16.1 60.9 29 -1.7 28.9
18:40 1017 30.03 847 25.01 15.5 59.9 31 -1.4 29.5
18:45 1017 30.03 847 25.01 15.1 59.1 32 -1.5 29.4
18:50 1017 30.03 847 25.01 14.3 57.8 40 1.1 34.1
18:55 1017 30.03 847 25.01 12.8 55.1 44 1.1 34
19:00 1018 30.06 847 25.01 11.8 53.2 47 1 33.8
19:05 1018 30.06 847 25.01 11.1 51.9 50 1 33.8
19:10 1017 30.03 847 25.01 10.6 51 51 0.9 33.6
19:15 1018 30.06 847 25.01 10.1 50.3 51 0.6 33.1
19:20 1018 30.06 847 25.01 10.1 50.1 52 0.6 33
19:25 1018 30.06 847 25.01 10 49.9 52 0.6 33
19:30 1018 30.06 847 25.01 9.9 49.8 52 0.6 33.1
19:35 1018 30.06 847 25.01 9.7 49.4 53 0.6 33.1
19:40 1018 30.06 847 25.01 9.3 48.8 55 0.8 33.5
19:45 1018 30.06 847 25.01 9 48.1 57 0.9 33.6
19:50 1018 30.06 847 25.01 8.5 47.3 58 0.7 33.2
19:55 1018 30.06 847 25.01 8.3 47 56 0.1 32.2
20:00 1018 30.06 847 25.01 8.3 46.9 54 -0.4 31.2
20:05 1018 30.06 847 25.01 8.6 47.5 53 -0.3 31.5
20:10 1018 30.06 847 25.01 8.5 47.3 54 -0.1 31.8
20:15 1018 30.06 847 25.01 8.3 46.9 54 -0.5 31.1
20:20 1018 30.06 847 25.01 8 46.5 55 -0.5 31.1
20:25 1018 30.06 847 25.01 8 46.4 53 -1 30.1
20:30 1018 30.06 847 25.01 8.4 47 52 -0.8 30.5
20:35 1018 30.06 847 25.01 8.2 46.7 54 -0.6 30.9
20:40 1018 30.06 847 25.01 7.9 46.1 54 -0.8 30.6
20:45 1018 30.06 847 25.01 7.7 45.9 55 -0.8 30.6
20:50 1018 30.06 847 25.01 7.7 45.9 54 -1 30.2
20:55 1018 30.06 847 25.01 7.8 46 54 -0.9 30.3
21:00 1018 30.06 847 25.01 7.7 45.9 54 -1.1 30
21:05 1018 30.06 847 25.01 7.8 46.1 53 -1.2 29.8
21:10 1018 30.06 847 25.01 8 46.4 52 -1.3 29.6
21:15 1018 30.06 847 25.01 8 46.4 52 -1.1 30
21:20 1018 30.06 847 25.01 7.9 46.2 53 -1 30.2
21:25 1018 30.06 847 25.01 7.7 45.8 54 -1.1 30.1
21:30 1017 30.03 847 25.01 7.6 45.6 54 -1.2 29.9
21:35 1017 30.03 847 25.01 7.5 45.5 55 -1 30.3
21:40 1018 30.06 847 25.01 7.3 45.1 54 -1.4 29.5
21:45 1017 30.03 847 25.01 7.3 45.2 53 -1.6 29.1
21:50 1017 30.03 847 25.01 7.6 45.7 51 -1.8 28.7
21:55 1017 30.03 847 25.01 7.9 46.2 51 -1.7 28.9
22:00 1017 30.03 847 25.01 7.7 45.9 52 -1.4 29.4
22:05 1017 30.03 847 25.01 7.5 45.5 53 -1.4 29.4
22:10 1017 30.03 847 25.01 7.4 45.2 52 -1.7 28.9
22:15 1017 30.03 847 25.01 7.4 45.3 52 -1.8 28.7
22:20 1017 30.03 847 25.01 7.5 45.4 51 -1.9 28.6
22:25 1017 30.03 847 25.01 7.6 45.6 51 -1.8 28.7
22:30 1017 30.03 847 25.01 7.5 45.6 50 -2.1 28.3
22:35 1017 30.03 847 25.01 7.6 45.6 50 -2.2 28.1
22:40 1017 30.03 846 24.98 7.8 46 49 -2.2 28.1
22:45 1017 30.03 846 24.98 7.8 46 50 -2.1 28.2
22:50 1017 30.03 846 24.98 7.7 45.9 49 -2.2 28.1
22:55 1017 30.03 846 24.98 7.7 45.9 49 -2.2 28.1
23:00 1017 30.03 846 24.98 7.8 46 49 -2.2 28
23:05 1017 30.03 846 24.98 7.8 46 49 -2.2 28
23:10 1017 30.03 846 24.98 7.8 46.1 49 -2.2 28
23:15 1017 30.03 846 24.98 7.9 46.2 49 -2.1 28.2
23:20 1017 30.03 846 24.98 8.1 46.6 49 -2 28.4
23:25 1017 30.03 846 24.98 8 46.4 50 -1.6 29
23:30 1017 30.03 846 24.98 7.8 46.1 51 -1.6 29.2
23:35 1017 30.03 846 24.98 7.8 46 52 -1.5 29.3
23:40 1017 30.03 846 24.98 7.7 45.8 52 -1.6 29.2
23:45 1017 30.03 846 24.98 7.6 45.6 53 -1.5 29.3
23:50 1017 30.03 846 24.98 7.5 45.4 53 -1.6 29.2
23:55 1017 30.03 846 24.98 7.6 45.6 53 -1.5 29.4
24:00 1017 30.03 846 24.98 7.6 45.6 53 -1.4 29.5